Scroll down
FLIGHT INFORMATION
Qatar Airways Cargo

QAC49

At Arrival Gate

EBBR
 KORD
DATE: 2021-11-22
GATE: 957
GATE DEPARTURE: 07:14
TAKEOFF: 07:27
DATE: 2021-11-22
GATE:  -
LANDING: 16:04
GATE ARRIVAL: 16:19
FLIGHT DATA
Crew: 
Speed: 
910 kph
Altitude: 
36,031 ft
Stage Length: 
6,675.1 km
Block Time: 
9 hrs
Flight Time: 
8.6 hrs
Fuel Used: 
67,024 kg
Cleared Route: EBBR KOK KONAN MORAG MALOT 5320N 5330N 5240N 5150N ALLRY MIILS IMAMA CFMJJ CFKMD ATENE ADVIK LORKA AGNOB SIKBO DASIR CFJBZ HOCKE FNT KORD
TRACK DATA
50,000 ft 1,000 kts
AIRCRAFT INFO AND CUMULATIVE STATS
Aircraft Type: 
B77LF
Registration: 
SELCAL: 
MSN/LN: 
62772 / 1571
Operator: 
Total Flights: 
1
Total Block Time: 
9 hrs
Total Flight Time: 
8.6 hrs
Total Fuel Used: 
67,024 kg
DATALINK LOG | Newest first | Current as of: 2022-10-05 22:56:57
LABEL SEQUENCE CONTENT Dn/Up
QD513516:19 26.7▼ Dn
QC350416:04▼ Dn
5U2342KORD 221723Z 29011KT 10SM FEW200 M05/M11 A3020▲ Up
5S5329KORD▼ Dn
UM204536CLEARED TO FL 340▲ Up
DM64526REQUEST FL 340 DUE TO A/C PERF▼ Dn
UM791801CLX 2018 211122 CYQX CLRNCE 219 QAC49 CLEARED TO KORD VIA MALOT 53N020W 53N030W 52N040W 51N050W ALLRY MNTN F340 M084.▲ Up
UM251800REQUESTING OCEANIC CLRNC CT EGGX CS EP MALOT FL 340 ETA 16:03 SPD M0.84▼ Dn
QB573607:27▼ Dn
QA430007:14 174.9▼ Dn
2U5714EBBR 220720Z 04004KT 9999 BKN011 03/02 Q1025 TEMPO BKN010▲ Up
2S2204EBBR▼ Dn
A31911CLEARED TO KORD VIA KOK1H KOK L607 KONAN MORAG MALOT NATA ALLRY N362A MIILS Q907 SIKBO Q905 HOCKE Q824 FNT WYNDE2. SQUAWK 4711.▲ Up
B31901EBBR KORD Z ▼ Dn
Q01457[LINK ACK]▲ Up
Q01457[LINK TEST]▼ Dn


AIRCRAFT HISTORY
FLIGHT DATE FLIGHT NO. ORIGIN DESTINATION CLEARED ROUTE BLOCK TIME FLIGHT TIME FUEL USED PILOT
2021-11-22QAC49EBBR KORD EBBR KOK KONAN MORAG MALOT 5320N 5330N 5240N 5150N ALLRY MIILS IMAMA CFMJJ CFKMD ATENE ADVIK LORKA AGNOB SIKBO DASIR CFJBZ HOCKE FNT KORD9 hrs8.6 hrs147,762 lbZsolt Szivak